Airfield :
LOGIN :

Register | Disclaimer

   EN    FR    IT 

 










Legend :    VFR   Marginal VFR   IFR   Intensive IFR   Very Intensive IFR
Visi :
Ceiling :
>= 8 km
>= 3000ft
5 to 8 km
1000 to 3000 ft
1500m to 5 km
500 to 1000 ft
800 to 1500m
200 to 500 ft
< 800m
< 200 ft
Symbols :   Thunderstorms  Fog  Heavy snow  Heavy precipitations  Wind > 20 kt
SIGMETs :     Misc.  Thunderstorms  Icing  Turbulence  Mountain Waves  Volcanic Ashes







- Airport Elevation : 1017 ft
- Download approach charts


LFSL - Brive Souillac

CURRENT METAR :
  • 240530Z AUTO 27003KT 220V310 CAVOK 15/12 Q1016 TEMPO BKN006

EXPIRED METARs :
  • 240500Z AUTO VRB03KT CAVOK 14/11 Q1016 TEMPO BKN010
  • 240430Z AUTO 27003KT CAVOK 14/12 Q1016 TEMPO BKN010
  • 240400Z AUTO 27003KT CAVOK 14/11 Q1016 TEMPO BKN010
  • 240330Z AUTO 29003KT CAVOK 14/11 Q1016 TEMPO BKN010
  • 240300Z AUTO 30005KT CAVOK 15/11 Q1016 TEMPO BKN010

TAF TAF LFSL
Valid from the 24 at 06:00 until the 24 at 15:00 UTC


240500Z 2406/2415 30005KT CAVOK
PROB40
TEMPO 2406/2410 -RA BKN006
BECMG 2410/2411 BKN030 SCT040TCU
No reported NOTAMs for that airfield.



MET'MAP, your aeronautical weather chart ! - Copyright ORBIFLY December 2007 - Disclaimer

ORBIFLY MET'MAP TEAM :

Programming & Development : Alexandra Zaïnal
Concept & Development : Baudouin d'Aumeries
Co-Development & Prog : Marc-Olivier Méhu
Technical & hardware support : Manuel Goepfert

Contact : metmap@orbifly.com




SOURCES & CREDITS :

   NOAA